createdAt,value
2023-03-22T00:02:09.021Z,97786.31
2023-03-22T00:05:13.620Z,97783.56
2023-03-22T00:08:17.510Z,97783.38
2023-03-22T00:11:24.302Z,97774.84
2023-03-22T00:14:29.770Z,97775.16
2023-03-22T00:17:33.860Z,97772.72
2023-03-22T00:20:42.009Z,97769.28
2023-03-22T00:23:47.676Z,97763.75
2023-03-22T00:26:52.386Z,97761.75
2023-03-22T00:29:59.328Z,97754.97
2023-03-22T00:33:03.046Z,97763.13
2023-03-22T00:36:09.386Z,97759.28
2023-03-22T00:39:12.988Z,97759.00
2023-03-22T00:42:17.071Z,97764.13
2023-03-22T00:45:22.442Z,97764.72
2023-03-22T00:48:26.663Z,97760.72
2023-03-22T00:51:31.728Z,97762.97
2023-03-22T00:54:36.044Z,97761.16
2023-03-22T00:57:40.435Z,97753.88
2023-03-22T01:00:46.828Z,97755.78
2023-03-22T01:03:51.524Z,97754.63
2023-03-22T01:07:01.453Z,97753.94
2023-03-22T01:10:07.387Z,97745.94
2023-03-22T01:13:30.670Z,97740.41
2023-03-22T01:16:35.943Z,97739.56
2023-03-22T01:19:40.082Z,97744.81
2023-03-22T01:22:45.009Z,97746.19
2023-03-22T01:25:49.343Z,97733.47
2023-03-22T01:28:52.964Z,97744.78
2023-03-22T01:31:58.797Z,97742.44
2023-03-22T01:35:02.450Z,97743.56
2023-03-22T01:38:07.869Z,97734.00
2023-03-22T01:41:18.093Z,97722.34
2023-03-22T01:44:25.682Z,97731.63
2023-03-22T01:47:36.478Z,97732.31
2023-03-22T01:50:46.491Z,97726.25
2023-03-22T01:53:52.934Z,97719.44
2023-03-22T01:56:57.962Z,97717.72
2023-03-22T02:00:15.566Z,97722.72
2023-03-22T02:03:48.324Z,97737.41
2023-03-22T02:06:55.864Z,97734.78
2023-03-22T02:10:03.681Z,97726.13
2023-03-22T02:13:49.121Z,97731.25
2023-03-22T02:17:33.695Z,97734.78
2023-03-22T02:21:21.354Z,97728.53
2023-03-22T02:24:55.671Z,97735.13
2023-03-22T02:28:24.072Z,97742.34
2023-03-22T02:31:50.310Z,97734.75
2023-03-22T02:35:26.780Z,97725.38
2023-03-22T02:39:04.532Z,97736.53
2023-03-22T02:42:33.540Z,97732.41
2023-03-22T02:45:47.858Z,97740.84
2023-03-22T02:49:00.375Z,97736.53
2023-03-22T02:52:17.583Z,97749.03
2023-03-22T02:55:27.670Z,97739.59
2023-03-22T02:58:38.290Z,97750.81
2023-03-22T03:01:46.240Z,97752.97
2023-03-22T03:04:53.289Z,97753.56
2023-03-22T03:08:04.172Z,97748.91
2023-03-22T03:11:11.808Z,97751.94
2023-03-22T03:14:23.433Z,97754.06
2023-03-22T03:17:52.253Z,97753.56
2023-03-22T03:21:04.744Z,97756.66
2023-03-22T03:24:22.753Z,97764.97
2023-03-22T03:27:36.613Z,97766.31
2023-03-22T03:30:49.656Z,97769.03
2023-03-22T03:34:01.540Z,97761.25
2023-03-22T03:37:11.778Z,97766.31
2023-03-22T03:40:19.940Z,97769.88
2023-03-22T03:43:26.344Z,97766.19
2023-03-22T03:46:31.482Z,97778.72
2023-03-22T03:49:38.513Z,97773.00
2023-03-22T03:52:42.913Z,97780.94
2023-03-22T03:55:47.230Z,97774.19
2023-03-22T03:58:53.446Z,97779.72
2023-03-22T04:01:57.787Z,97787.09
2023-03-22T04:05:07.617Z,97786.75
2023-03-22T04:08:13.406Z,97785.94
2023-03-22T04:11:36.199Z,97804.75
2023-03-22T04:14:43.506Z,97802.22
2023-03-22T04:17:55.962Z,97796.34
2023-03-22T04:21:03.607Z,97796.56
2023-03-22T04:24:15.169Z,97797.59
2023-03-22T04:27:22.874Z,97801.69
2023-03-22T04:30:36.996Z,97802.69
2023-03-22T04:33:56.629Z,97798.34
2023-03-22T04:37:27.179Z,97796.59
2023-03-22T04:40:52.648Z,97808.56
2023-03-22T04:44:05.810Z,97801.69
2023-03-22T04:47:14.890Z,97808.47
2023-03-22T04:50:19.406Z,97819.66
2023-03-22T04:53:28.411Z,97812.81
2023-03-22T04:56:37.373Z,97816.09
2023-03-22T04:59:42.146Z,97827.50
2023-03-22T05:02:49.972Z,97826.94
2023-03-22T05:06:15.477Z,97825.41
2023-03-22T05:09:45.804Z,97839.69
2023-03-22T05:12:51.283Z,97846.31
2023-03-22T05:16:00.364Z,97844.47
2023-03-22T05:19:16.706Z,97851.66
2023-03-22T05:22:24.559Z,97861.72
2023-03-22T05:25:34.423Z,97862.56
2023-03-22T05:29:11.082Z,97865.06
2023-03-22T05:32:33.378Z,97870.97
2023-03-22T05:35:40.561Z,97859.25
2023-03-22T05:38:46.633Z,97869.81
2023-03-22T05:41:50.839Z,97870.88
2023-03-22T05:44:56.594Z,97869.34
2023-03-22T05:48:00.653Z,97870.66
2023-03-22T05:51:09.439Z,97877.41
2023-03-22T05:54:13.788Z,97887.53
2023-03-22T05:57:24.845Z,97887.00
2023-03-22T06:00:32.992Z,97893.94
2023-03-22T06:04:00.574Z,97894.25
2023-03-22T06:07:18.433Z,97898.06
2023-03-22T06:10:28.885Z,97903.44
2023-03-22T06:13:32.549Z,97909.84
2023-03-22T06:16:36.675Z,97909.41
2023-03-22T06:19:41.379Z,97908.44
2023-03-22T06:22:50.537Z,97901.94
2023-03-22T06:25:55.069Z,97907.50
2023-03-22T06:29:00.369Z,97904.91
2023-03-22T06:32:04.930Z,97911.56
2023-03-22T06:35:10.140Z,97906.97
2023-03-22T06:38:15.893Z,97911.25
2023-03-22T06:41:21.213Z,97919.75
2023-03-22T06:44:26.713Z,97919.25
2023-03-22T06:47:47.887Z,97918.84
2023-03-22T06:51:09.999Z,97922.22
2023-03-22T06:54:16.888Z,97922.19
2023-03-22T06:57:20.616Z,97915.91
2023-03-22T07:00:25.089Z,97917.94
2023-03-22T07:03:29.107Z,97921.19
2023-03-22T07:06:41.895Z,97931.63
2023-03-22T07:10:07.905Z,97938.50
2023-03-22T07:13:12.161Z,97933.03
2023-03-22T07:16:18.104Z,97931.56
2023-03-22T07:19:34.546Z,97933.94
2023-03-22T07:22:43.394Z,97932.53
2023-03-22T07:25:49.543Z,97939.34
2023-03-22T07:28:59.548Z,97940.22
2023-03-22T07:32:07.665Z,97935.50
2023-03-22T07:35:29.275Z,97949.56
2023-03-22T07:38:34.247Z,97952.09
2023-03-22T07:41:41.062Z,97951.88
2023-03-22T07:45:10.199Z,97947.34
2023-03-22T07:48:24.767Z,97938.31
2023-03-22T07:51:37.844Z,97936.75
2023-03-22T07:54:42.488Z,97942.44
2023-03-22T07:57:48.383Z,97946.03
2023-03-22T08:00:53.175Z,97936.44
2023-03-22T08:04:15.923Z,97941.31
2023-03-22T08:07:35.414Z,97931.75
2023-03-22T08:10:40.488Z,97931.19
2023-03-22T08:13:45.669Z,97928.72
2023-03-22T08:16:49.923Z,97929.88
2023-03-22T08:19:55.998Z,97925.47
2023-03-22T08:23:14.925Z,97922.41
2023-03-22T08:26:37.667Z,97919.84
2023-03-22T08:29:56.539Z,97925.19
2023-03-22T08:33:00.135Z,97929.97
2023-03-22T08:36:08.944Z,97925.13
2023-03-22T08:39:18.877Z,97929.81
2023-03-22T08:42:32.162Z,97928.03
2023-03-22T08:45:37.707Z,97920.66
2023-03-22T08:48:50.882Z,97927.53
2023-03-22T08:52:03.710Z,97921.78
2023-03-22T08:55:20.127Z,97922.81
2023-03-22T08:58:46.519Z,97922.78
2023-03-22T09:02:14.632Z,97923.38
2023-03-22T09:05:18.914Z,97919.53
2023-03-22T09:08:23.278Z,97922.56
2023-03-22T09:11:37.322Z,97913.31
2023-03-22T09:14:41.724Z,97913.03
2023-03-22T09:17:46.855Z,97916.81
2023-03-22T09:20:52.746Z,97915.03
2023-03-22T09:24:00.959Z,97909.19
2023-03-22T09:27:15.203Z,97914.66
2023-03-22T09:30:19.466Z,97912.03
2023-03-22T09:33:29.387Z,97917.16
2023-03-22T09:36:34.419Z,97909.41
2023-03-22T09:39:39.167Z,97914.03
2023-03-22T09:42:47.536Z,97910.22
2023-03-22T09:45:54.057Z,97905.88
2023-03-22T09:49:02.207Z,97903.09
2023-03-22T09:52:13.499Z,97898.78
2023-03-22T09:55:27.769Z,97901.66
2023-03-22T09:58:37.657Z,97907.09
2023-03-22T10:01:52.991Z,97895.88
2023-03-22T10:05:06.517Z,97896.91
2023-03-22T10:08:31.550Z,97896.59
2023-03-22T10:11:45.964Z,97887.94
2023-03-22T10:14:53.114Z,97891.28
2023-03-22T10:18:00.380Z,97890.97
2023-03-22T10:21:12.383Z,97885.88
2023-03-22T10:24:23.954Z,97889.75
2023-03-22T10:27:30.095Z,97894.81
2023-03-22T10:30:40.156Z,97892.81
2023-03-22T10:33:51.315Z,97882.56
2023-03-22T10:37:00.419Z,97883.63
2023-03-22T10:40:09.453Z,97879.78
2023-03-22T10:43:23.977Z,97876.22
2023-03-22T10:46:33.038Z,97878.25
2023-03-22T10:49:40.992Z,97870.09
2023-03-22T10:52:52.663Z,97879.81
2023-03-22T10:56:00.446Z,97873.34
2023-03-22T10:59:04.205Z,97874.28
2023-03-22T11:02:21.753Z,97873.09
2023-03-22T11:05:27.826Z,97871.16
2023-03-22T11:08:40.744Z,97864.59
2023-03-22T11:11:51.175Z,97857.53
2023-03-22T11:14:55.585Z,97856.81
2023-03-22T11:18:08.886Z,97851.69
2023-03-22T11:21:17.546Z,97842.78
2023-03-22T11:24:26.771Z,97845.41
2023-03-22T11:27:34.728Z,97837.47
2023-03-22T11:30:41.238Z,97840.53
2023-03-22T11:33:57.705Z,97834.66
2023-03-22T11:37:02.492Z,97828.28
2023-03-22T11:40:16.314Z,97817.03
2023-03-22T11:43:25.438Z,97824.16
2023-03-22T11:46:32.609Z,97835.44
2023-03-22T11:49:46.301Z,97831.09
2023-03-22T11:52:50.624Z,97827.25
2023-03-22T11:55:58.977Z,97819.06
2023-03-22T11:59:08.783Z,97818.31
2023-03-22T12:02:21.665Z,97812.94
2023-03-22T12:05:27.664Z,97808.56
2023-03-22T12:08:42.820Z,97809.84
2023-03-22T12:11:52.620Z,97804.97
2023-03-22T12:15:03.140Z,97803.97
2023-03-22T12:18:16.117Z,97799.34
2023-03-22T12:21:19.961Z,97797.31
2023-03-22T12:24:30.936Z,97793.97
2023-03-22T12:27:41.022Z,97794.25
2023-03-22T12:30:49.236Z,97812.13
2023-03-22T12:33:57.291Z,97800.13
2023-03-22T12:37:05.333Z,97808.06
2023-03-22T12:40:21.119Z,97801.41
2023-03-22T12:43:41.243Z,97803.47
2023-03-22T12:46:51.835Z,97810.34
2023-03-22T12:50:00.630Z,97795.75
2023-03-22T12:53:06.764Z,97795.00
2023-03-22T12:56:16.714Z,97789.59
2023-03-22T13:03:03.968Z,97786.00
2023-03-22T13:06:33.780Z,97781.41
2023-03-22T13:09:43.594Z,97776.28
2023-03-22T13:13:12.236Z,97775.28
2023-03-22T13:16:22.980Z,97768.31
2023-03-22T13:19:37.768Z,97777.31
2023-03-22T13:23:19.626Z,97771.41
2023-03-22T13:26:29.316Z,97769.78
2023-03-22T13:29:37.634Z,97776.13
2023-03-22T13:32:56.190Z,97773.88
2023-03-22T13:36:09.471Z,97768.56
2023-03-22T13:39:16.407Z,97767.28
2023-03-22T13:42:22.827Z,97769.78
2023-03-22T13:45:34.814Z,97768.03
2023-03-22T13:48:52.372Z,97769.50
2023-03-22T13:52:00.166Z,97762.84
2023-03-22T13:55:15.507Z,97759.94
2023-03-22T13:58:39.594Z,97751.25
2023-03-22T14:01:47.832Z,97753.47
2023-03-22T14:04:56.210Z,97755.66
2023-03-22T14:08:04.481Z,97761.94
2023-03-22T14:11:27.285Z,97757.88
2023-03-22T14:14:37.118Z,97765.13
2023-03-22T14:17:45.963Z,97756.94
2023-03-22T14:20:59.496Z,97767.28
